Time;durP1;ratioP1;P1;durP2;ratioP2;P2;SDS_P1;SDS_P2;PMS_P1;PMS_P2;Temp;Humidity;BMP_temperature;BMP_pressure;BME280_temperature;BME280_humidity;BME280_pressure;Samples;Min_cycle;Max_cycle;Signal;HPM_P1;HPM_P2
2021/08/19 00:02:24;;;;;;;9.38;5.53;;;;;;;15.33;63.23;98324.59;5118758;28;20882;-67
2021/08/19 00:04:51;;;;;;;9.73;5.10;;;;;;;15.38;63.56;98326.41;5120354;28;20019;-70
2021/08/19 00:07:17;;;;;;;7.53;4.80;;;;;;;15.41;63.21;98331.25;5120372;28;20114;-67
2021/08/19 00:09:42;;;;;;;8.40;5.05;;;;;;;15.43;63.47;98332.53;5121167;28;20054;-67
2021/08/19 00:14:14;;;;;;;10.75;4.80;;;;;;;15.47;63.33;98327.19;5061541;27;2055191;-68
2021/08/19 00:16:40;;;;;;;8.93;4.63;;;;;;;15.47;63.03;98327.97;5114258;28;20454;-68
2021/08/19 00:19:05;;;;;;;7.70;4.60;;;;;;;15.50;63.19;98326.47;5110064;28;20028;-67
2021/08/19 00:21:31;;;;;;;8.60;4.95;;;;;;;15.48;63.71;98324.06;5091180;28;20057;-68
2021/08/19 00:23:58;;;;;;;8.40;4.63;;;;;;;15.48;63.15;98320.50;5109697;28;20024;-67
2021/08/19 00:26:23;;;;;;;7.18;4.82;;;;;;;15.45;63.23;98319.19;5113955;28;20050;-67
2021/08/19 00:28:48;;;;;;;8.48;5.15;;;;;;;15.47;63.60;98318.88;5095567;28;20032;-67
2021/08/19 00:31:14;;;;;;;6.30;4.18;;;;;;;15.47;63.52;98325.22;5111991;28;20027;-68
2021/08/19 00:33:39;;;;;;;9.27;4.50;;;;;;;15.47;63.18;98316.91;5107003;28;20028;-69
2021/08/19 00:36:05;;;;;;;6.28;3.92;;;;;;;15.48;63.81;98318.53;5113798;28;20115;-68
2021/08/19 00:38:30;;;;;;;7.90;4.63;;;;;;;15.51;63.60;98319.00;5107235;28;20114;-69
2021/08/19 00:40:56;;;;;;;7.00;4.35;;;;;;;15.54;63.65;98318.34;5106401;28;20063;-68
2021/08/19 00:43:22;;;;;;;9.25;4.65;;;;;;;15.57;63.63;98315.72;5092915;28;20031;-68
2021/08/19 00:45:47;;;;;;;6.55;4.45;;;;;;;15.60;63.49;98315.06;5112271;28;20062;-68
2021/08/19 00:48:13;;;;;;;8.02;4.15;;;;;;;15.63;63.67;98316.38;5110372;28;20076;-69
2021/08/19 00:50:39;;;;;;;7.25;4.28;;;;;;;15.65;63.82;98311.31;5114220;28;20158;-69
2021/08/19 00:53:05;;;;;;;10.55;4.78;;;;;;;15.61;63.60;98313.91;5109774;28;20035;-69
2021/08/19 00:55:30;;;;;;;6.00;4.03;;;;;;;15.63;63.41;98319.13;5112547;28;20019;-69
2021/08/19 00:57:56;;;;;;;6.53;4.22;;;;;;;15.61;63.51;98319.44;5110361;28;20039;-69
2021/08/19 01:00:22;;;;;;;6.40;3.92;;;;;;;15.60;63.51;98325.31;5090160;28;20026;-69
2021/08/19 01:02:47;;;;;;;9.25;4.38;;;;;;;15.54;63.55;98323.88;5104989;28;20501;-69
2021/08/19 01:05:18;;;;;;;5.18;3.78;;;;;;;15.54;63.31;98323.88;5106968;28;20031;-69
2021/08/19 01:07:45;;;;;;;5.22;3.90;;;;;;;15.55;63.53;98325.50;5105471;28;20483;-69
2021/08/19 01:10:10;;;;;;;7.22;3.90;;;;;;;15.54;63.83;98332.19;5107014;28;20491;-69
2021/08/19 01:12:36;;;;;;;8.00;3.85;;;;;;;15.52;63.87;98320.63;5104803;28;20158;-69
2021/08/19 01:15:02;;;;;;;6.85;4.00;;;;;;;15.52;63.90;98335.25;5106208;28;20463;-68
2021/08/19 01:17:30;;;;;;;6.70;4.10;;;;;;;15.54;63.75;98327.44;5105980;28;20023;-69
2021/08/19 01:19:57;;;;;;;5.00;3.20;;;;;;;15.56;63.66;98332.66;5108386;28;20015;-69
2021/08/19 01:22:24;;;;;;;5.25;3.13;;;;;;;15.54;63.55;98329.41;5090821;28;20045;-69
2021/08/19 01:24:49;;;;;;;6.20;3.20;;;;;;;15.52;63.80;98329.72;5100100;28;20073;-69
2021/08/19 01:27:16;;;;;;;4.50;2.95;;;;;;;15.53;63.67;98317.53;5094054;28;20036;-69
2021/08/19 01:29:44;;;;;;;4.35;2.85;;;;;;;15.50;63.62;98318.19;5096838;28;20024;-68
2021/08/19 01:32:11;;;;;;;6.43;3.10;;;;;;;15.47;63.90;98325.22;5091474;28;20027;-69
2021/08/19 01:34:37;;;;;;;7.10;2.75;;;;;;;15.48;63.78;98326.03;5093827;28;20106;-69
2021/08/19 01:37:04;;;;;;;5.80;3.20;;;;;;;15.47;64.08;98319.69;5093174;28;20118;-68
2021/08/19 01:39:29;;;;;;;6.88;3.05;;;;;;;15.44;63.88;98320.34;5092119;28;20035;-69
2021/08/19 01:41:55;;;;;;;5.88;2.60;;;;;;;15.47;64.43;98330.72;5092450;28;20020;-68
2021/08/19 01:44:21;;;;;;;4.95;2.63;;;;;;;15.48;64.39;98320.50;5091897;28;20028;-68
2021/08/19 01:46:57;;;;;;;5.05;2.70;;;;;;;15.50;64.20;98325.69;5093142;28;20476;-69
2021/08/19 01:49:23;;;;;;;3.38;2.50;;;;;;;15.50;64.43;98328.44;5096387;28;20023;-69
2021/08/19 01:51:49;;;;;;;3.88;2.80;;;;;;;15.51;64.24;98324.53;5090985;28;20024;-69
2021/08/19 01:54:15;;;;;;;4.18;2.60;;;;;;;15.51;64.35;98324.53;5095486;28;20032;-69
2021/08/19 01:56:42;;;;;;;6.03;2.78;;;;;;;15.50;64.39;98326.47;5091746;28;20035;-68
2021/08/19 01:59:07;;;;;;;3.40;2.65;;;;;;;15.46;63.90;98320.81;5092089;28;20024;-69
2021/08/19 02:01:33;;;;;;;4.10;2.63;;;;;;;15.45;64.44;98316.44;5092992;28;20028;-69
2021/08/19 02:03:58;;;;;;;3.30;2.28;;;;;;;15.41;64.56;98315.47;5096936;28;20080;-69
2021/08/19 02:06:24;;;;;;;5.20;2.42;;;;;;;15.38;64.63;98315.34;5093102;28;20068;-68
2021/08/19 02:08:49;;;;;;;2.85;2.20;;;;;;;15.36;64.18;98312.91;5091592;28;20123;-69
2021/08/19 02:11:16;;;;;;;3.45;2.45;;;;;;;15.34;64.48;98315.19;5093415;28;20023;-69
2021/08/19 02:13:42;;;;;;;3.20;2.33;;;;;;;15.34;64.79;98306.88;5089448;28;20835;-70
2021/08/19 02:16:07;;;;;;;3.80;2.60;;;;;;;15.35;64.72;98310.47;5089903;28;20032;-70
2021/08/19 02:18:33;;;;;;;4.25;2.50;;;;;;;15.36;64.43;98314.88;5074296;28;20028;-69
2021/08/19 02:20:58;;;;;;;3.67;2.30;;;;;;;15.36;64.41;98323.94;5094407;28;20024;-69
2021/08/19 02:23:24;;;;;;;3.40;2.33;;;;;;;15.32;64.86;98311.94;5073066;28;20584;-70
2021/08/19 02:25:49;;;;;;;3.95;2.25;;;;;;;15.30;64.59;98325.28;5098235;28;20036;-70
2021/08/19 02:28:14;;;;;;;3.65;2.10;;;;;;;15.29;64.75;98307.06;5091511;28;20107;-70
2021/08/19 02:30:40;;;;;;;5.22;2.35;;;;;;;15.27;65.15;98295.56;5098284;28;20032;-70
2021/08/19 02:33:05;;;;;;;3.00;2.33;;;;;;;15.26;64.51;98305.00;5092693;28;20055;-70
2021/08/19 02:35:32;;;;;;;3.10;2.20;;;;;;;15.25;65.04;98306.13;5098353;28;20054;-70
2021/08/19 02:38:06;;;;;;;4.68;2.72;;;;;;;15.27;65.13;98309.38;5094802;28;20032;-70
2021/08/19 02:40:32;;;;;;;4.60;3.30;;;;;;;15.28;65.26;98309.03;5095969;28;20020;-69
2021/08/19 02:42:57;;;;;;;5.28;2.75;;;;;;;15.30;65.27;98306.75;5095155;28;20016;-69
2021/08/19 02:45:22;;;;;;;3.55;2.70;;;;;;;15.31;65.42;98310.31;5099881;28;20399;-69
2021/08/19 02:47:48;;;;;;;4.05;2.63;;;;;;;15.33;65.58;98302.50;5095740;28;20146;-70
2021/08/19 02:50:14;;;;;;;3.30;2.60;;;;;;;15.35;65.66;98302.97;5093836;28;20051;-69
2021/08/19 02:52:40;;;;;;;3.53;2.63;;;;;;;15.35;65.53;98304.94;5091861;28;20032;-70
2021/08/19 02:55:07;;;;;;;3.42;2.25;;;;;;;15.36;65.54;98303.81;5092839;28;20391;-69
2021/08/19 02:57:32;;;;;;;4.13;2.78;;;;;;;15.39;65.45;98295.66;5097857;28;20016;-69
2021/08/19 02:59:58;;;;;;;4.75;2.78;;;;;;;15.43;65.78;98293.06;5095090;28;20085;-70
2021/08/19 03:02:24;;;;;;;4.25;2.67;;;;;;;15.47;65.38;98294.00;5094206;28;20380;-70
2021/08/19 03:04:50;;;;;;;5.20;3.05;;;;;;;15.49;65.37;98294.47;5096793;28;20052;-69
2021/08/19 03:07:15;;;;;;;4.60;3.17;;;;;;;15.47;65.28;98300.34;5074557;28;20106;-70
2021/08/19 03:09:41;;;;;;;4.50;3.03;;;;;;;15.50;65.76;98295.28;5098340;28;20488;-70
2021/08/19 03:12:07;;;;;;;4.90;3.30;;;;;;;15.51;65.25;98302.44;5090827;28;20461;-70
2021/08/19 03:14:33;;;;;;;6.18;3.70;;;;;;;15.53;65.81;98298.19;5094897;28;20047;-70
2021/08/19 03:16:59;;;;;;;5.18;3.58;;;;;;;15.55;65.31;98295.09;5097397;28;20477;-69
2021/08/19 03:19:24;;;;;;;7.05;3.72;;;;;;;15.57;65.38;98296.38;5097771;28;20153;-68
2021/08/19 03:21:50;;;;;;;6.43;3.45;;;;;;;15.57;65.42;98299.13;5090147;28;20027;-68
2021/08/19 03:24:15;;;;;;;8.23;3.95;;;;;;;15.56;65.40;98292.00;5098008;28;20272;-68
2021/08/19 03:26:41;;;;;;;8.50;4.18;;;;;;;15.61;65.33;98299.28;5073967;28;20031;-68
2021/08/19 03:29:07;;;;;;;5.95;3.90;;;;;;;15.64;65.12;98301.41;5095179;28;20032;-69
2021/08/19 03:31:32;;;;;;;7.18;4.15;;;;;;;15.63;65.71;98303.34;5092347;28;20056;-69
2021/08/19 03:33:58;;;;;;;7.22;4.43;;;;;;;15.65;65.75;98308.53;5092642;28;20120;-68
2021/08/19 03:36:25;;;;;;;7.00;4.72;;;;;;;15.65;65.72;98293.91;5096054;28;20024;-68
2021/08/19 03:38:50;;;;;;;8.38;4.68;;;;;;;15.67;65.48;98305.44;5093283;28;20040;-68
2021/08/19 03:41:16;;;;;;;7.22;4.13;;;;;;;15.65;65.85;98300.25;5092480;28;20407;-69
2021/08/19 03:43:44;;;;;;;6.18;4.05;;;;;;;15.66;65.69;98299.13;5093113;28;20484;-68
2021/08/19 03:46:09;;;;;;;7.22;4.03;;;;;;;15.65;65.63;98291.97;5091140;28;20059;-68
2021/08/19 03:48:35;;;;;;;7.05;4.30;;;;;;;15.66;65.61;98293.59;5094297;28;20447;-68
2021/08/19 03:51:00;;;;;;;6.18;4.25;;;;;;;15.66;66.03;98298.28;5094138;28;20026;-68
2021/08/19 03:53:26;;;;;;;7.22;3.95;;;;;;;15.67;65.91;98291.63;5092501;28;20126;-68
2021/08/19 03:55:51;;;;;;;5.82;3.67;;;;;;;15.65;65.74;98288.38;5096963;28;20016;-69
2021/08/19 03:58:17;;;;;;;5.72;3.97;;;;;;;15.62;65.72;98285.13;5095225;28;20453;-69
2021/08/19 04:00:42;;;;;;;6.60;3.63;;;;;;;15.63;65.95;98295.03;5092440;28;21245;-68
2021/08/19 04:03:08;;;;;;;5.28;3.50;;;;;;;15.63;65.91;98291.47;5091522;28;20088;-69
2021/08/19 04:05:33;;;;;;;8.02;4.05;;;;;;;15.63;66.29;98294.25;5090341;28;20147;-69
2021/08/19 04:07:59;;;;;;;5.13;3.42;;;;;;;15.63;65.94;98297.00;5093653;28;20028;-69
2021/08/19 04:10:24;;;;;;;5.93;3.30;;;;;;;15.61;65.97;98291.81;5091935;28;20081;-69
2021/08/19 04:12:49;;;;;;;7.00;3.28;;;;;;;15.57;66.25;98292.81;5092717;28;20070;-69
2021/08/19 04:15:15;;;;;;;5.10;3.40;;;;;;;15.58;66.56;98291.66;5091818;28;20772;-69
2021/08/19 04:17:40;;;;;;;4.97;3.55;;;;;;;15.57;66.17;98290.84;5097210;28;20526;-69
2021/08/19 04:20:07;;;;;;;4.85;2.97;;;;;;;15.58;66.42;98289.69;5078261;28;20471;-69
2021/08/19 04:22:33;;;;;;;5.13;3.13;;;;;;;15.63;66.43;98291.47;5093444;28;20040;-69
2021/08/19 04:24:58;;;;;;;6.05;3.22;;;;;;;15.66;66.42;98290.81;5095521;28;20038;-68
2021/08/19 04:27:24;;;;;;;5.03;3.25;;;;;;;15.69;66.79;98295.66;5095382;28;20077;-69
2021/08/19 04:29:49;;;;;;;5.63;3.15;;;;;;;15.70;66.57;98294.50;5095644;28;20483;-70
2021/08/19 04:32:15;;;;;;;3.80;2.70;;;;;;;15.70;66.31;98294.50;5091107;28;20040;-69
2021/08/19 04:34:41;;;;;;;4.32;3.03;;;;;;;15.72;66.54;98294.97;5093930;28;20027;-70
2021/08/19 04:37:06;;;;;;;6.95;2.88;;;;;;;15.75;66.66;98290.75;5092480;28;20036;-69
2021/08/19 04:39:32;;;;;;;4.05;2.83;;;;;;;15.79;66.84;98300.00;5095098;28;20028;-69
2021/08/19 04:41:57;;;;;;;4.18;3.10;;;;;;;15.82;66.80;98304.03;5094373;28;20036;-69
2021/08/19 04:44:23;;;;;;;5.13;3.45;;;;;;;15.84;66.79;98299.00;5097974;28;20023;-70
2021/08/19 04:46:48;;;;;;;4.38;2.95;;;;;;;15.86;66.48;98303.09;5095108;28;20032;-69
2021/08/19 04:49:14;;;;;;;4.78;2.80;;;;;;;15.90;66.69;98300.44;5093619;28;20023;-70
2021/08/19 04:51:41;;;;;;;6.05;3.33;;;;;;;15.91;66.75;98299.31;5091931;28;20028;-70
2021/08/19 04:54:07;;;;;;;3.72;2.85;;;;;;;15.88;67.05;98295.25;5092632;28;20110;-70
2021/08/19 04:56:38;;;;;;;5.05;2.88;;;;;;;15.88;66.65;98295.25;5098148;28;20115;-69
2021/08/19 04:59:08;;;;;;;5.05;3.00;;;;;;;15.92;66.92;98296.19;5093710;28;20077;-70
2021/08/19 05:01:34;;;;;;;4.63;3.28;;;;;;;15.96;66.84;98298.28;5092291;28;20028;-69
2021/08/19 05:04:01;;;;;;;4.00;3.00;;;;;;;15.99;66.63;98286.53;5098375;28;20023;-69
2021/08/19 05:06:27;;;;;;;5.50;2.90;;;;;;;16.04;67.14;98292.72;5093002;28;20271;-69
2021/08/19 05:08:54;;;;;;;4.45;2.83;;;;;;;16.05;66.68;98288.78;5077312;28;20027;-70
2021/08/19 05:11:20;;;;;;;7.40;3.20;;;;;;;16.09;66.73;98288.13;5094863;28;20483;-69
2021/08/19 05:13:46;;;;;;;3.88;2.80;;;;;;;16.11;67.19;98294.09;5093305;28;20125;-70
2021/08/19 05:16:11;;;;;;;5.00;3.35;;;;;;;16.17;66.75;98288.06;5100046;28;20035;-70
2021/08/19 05:18:38;;;;;;;4.20;2.80;;;;;;;16.17;67.25;98292.75;5095711;28;20027;-69
2021/08/19 05:21:04;;;;;;;4.93;2.90;;;;;;;16.24;67.24;98297.78;5093609;28;20094;-70
2021/08/19 05:23:29;;;;;;;2.97;2.67;;;;;;;16.29;66.95;98289.25;5095161;28;20028;-70
2021/08/19 05:25:55;;;;;;;4.85;2.47;;;;;;;16.35;66.85;98293.41;5095369;28;20136;-69
2021/08/19 05:28:20;;;;;;;4.13;2.80;;;;;;;16.37;67.11;98283.66;5097720;28;20086;-70
2021/08/19 05:30:46;;;;;;;4.60;3.10;;;;;;;16.42;67.08;98301.19;5093275;28;20032;-70
2021/08/19 05:33:11;;;;;;;6.22;3.10;;;;;;;16.44;66.89;98301.66;5094618;28;20254;-70
2021/08/19 05:35:36;;;;;;;5.65;2.53;;;;;;;16.46;66.62;98294.63;5097908;28;20032;-70
2021/08/19 05:38:02;;;;;;;4.07;2.60;;;;;;;16.51;66.79;98299.13;5101943;28;20043;-70
2021/08/19 05:40:28;;;;;;;3.72;2.97;;;;;;;16.56;66.74;98298.13;5098059;28;20107;-70
2021/08/19 05:42:53;;;;;;;4.22;2.80;;;;;;;16.60;66.74;98299.88;5094262;28;20032;-70
2021/08/19 05:45:19;;;;;;;5.45;3.40;;;;;;;16.65;66.85;98288.59;5097146;28;20035;-68
2021/08/19 05:47:44;;;;;;;6.85;3.40;;;;;;;16.72;66.74;98298.31;5097007;28;20050;-69
2021/08/19 05:50:10;;;;;;;5.60;3.30;;;;;;;16.76;66.32;98293.72;5097573;28;20032;-69
2021/08/19 05:52:40;;;;;;;5.90;3.70;;;;;;;16.81;66.85;98299.03;5093405;28;20035;-69
2021/08/19 05:55:06;;;;;;;4.47;3.22;;;;;;;16.87;66.45;98307.91;5074695;28;20027;-69
2021/08/19 05:57:32;;;;;;;5.82;3.38;;;;;;;16.91;66.14;98301.34;5076629;28;20036;-69
2021/08/19 05:59:57;;;;;;;5.15;3.10;;;;;;;16.99;66.46;98307.16;5097458;28;20059;-69
2021/08/19 06:02:23;;;;;;;9.98;3.08;;;;;;;17.01;66.58;98302.09;5091167;28;20032;-69
2021/08/19 06:04:48;;;;;;;4.47;3.10;;;;;;;17.08;66.45;98297.63;5099458;28;20036;-69
2021/08/19 06:07:13;;;;;;;6.13;3.15;;;;;;;17.10;66.30;98303.63;5097062;28;20050;-69
2021/08/19 06:09:39;;;;;;;5.57;2.95;;;;;;;17.17;65.99;98305.00;5095642;28;20118;-69
2021/08/19 06:12:05;;;;;;;5.03;2.92;;;;;;;17.18;66.13;98298.31;5095104;28;20390;-69
2021/08/19 06:14:31;;;;;;;5.30;2.53;;;;;;;17.26;65.92;98295.47;5096715;28;20135;-69
2021/08/19 06:16:56;;;;;;;5.95;2.75;;;;;;;17.34;65.97;98290.94;5089028;28;20107;-69
2021/08/19 06:19:22;;;;;;;5.07;3.05;;;;;;;17.39;66.40;98295.44;5077481;28;20028;-69
2021/08/19 06:21:48;;;;;;;4.53;2.83;;;;;;;17.40;65.51;98297.06;5079601;28;20094;-69
2021/08/19 06:24:13;;;;;;;4.72;2.72;;;;;;;17.45;65.89;98293.28;5096211;28;20036;-69
2021/08/19 06:26:39;;;;;;;4.07;2.90;;;;;;;17.45;65.43;98301.59;5093999;28;20035;-69
2021/08/19 06:29:04;;;;;;;5.07;3.05;;;;;;;17.48;65.32;98298.91;5076957;28;20031;-69
2021/08/19 06:31:29;;;;;;;4.63;2.70;;;;;;;17.52;65.47;98299.06;5096526;28;20040;-69
2021/08/19 06:33:55;;;;;;;5.45;2.70;;;;;;;17.56;65.32;98298.00;5095600;28;20115;-69
2021/08/19 06:36:20;;;;;;;6.75;2.60;;;;;;;17.59;65.20;98302.03;5096401;28;20024;-69
2021/08/19 06:38:47;;;;;;;5.70;3.00;;;;;;;17.65;65.08;98305.41;5096790;28;20047;-69
2021/08/19 06:41:13;;;;;;;3.92;2.55;;;;;;;17.66;64.90;98298.69;5096592;28;20035;-69
2021/08/19 06:43:38;;;;;;;4.78;2.85;;;;;;;17.67;64.64;98305.88;5093331;28;20092;-69
2021/08/19 06:46:03;;;;;;;4.95;2.88;;;;;;;17.68;64.65;98297.19;5095428;28;20023;-69
2021/08/19 06:48:29;;;;;;;3.28;2.47;;;;;;;17.74;64.70;98297.75;5097534;28;20024;-68
2021/08/19 06:50:54;;;;;;;3.85;2.90;;;;;;;17.79;64.87;98299.50;5092926;28;20030;-69
2021/08/19 06:53:20;;;;;;;3.85;2.83;;;;;;;17.84;64.72;98307.56;5092665;28;20979;-68
2021/08/19 06:55:45;;;;;;;4.43;2.90;;;;;;;17.94;64.69;98311.84;5096703;28;20147;-69
2021/08/19 06:58:10;;;;;;;3.15;2.53;;;;;;;17.99;64.37;98309.66;5093471;28;20032;-70
2021/08/19 07:00:36;;;;;;;4.85;2.95;;;;;;;18.09;64.60;98302.00;5092176;28;20040;-69
2021/08/19 07:03:01;;;;;;;6.32;3.00;;;;;;;18.17;64.40;98303.03;5094464;28;20111;-69
2021/08/19 07:05:27;;;;;;;3.47;2.75;;;;;;;18.22;64.21;98306.38;5058023;28;20370;-69
2021/08/19 07:07:58;;;;;;;4.53;3.30;;;;;;;18.27;63.98;98306.13;5096009;28;20119;-69
2021/08/19 07:10:24;;;;;;;4.47;2.95;;;;;;;18.30;63.91;98305.44;5074123;28;20043;-69
2021/08/19 07:12:49;;;;;;;4.95;3.00;;;;;;;18.35;63.72;98317.44;5096016;28;20851;-69
2021/08/19 07:15:14;;;;;;;6.03;3.03;;;;;;;18.40;63.49;98315.22;5095974;28;20028;-69
2021/08/19 07:17:40;;;;;;;4.25;2.95;;;;;;;18.40;63.34;98309.69;5078151;28;20416;-69
2021/08/19 07:20:06;;;;;;;5.15;2.88;;;;;;;18.47;63.32;98305.50;5094171;28;20019;-69
2021/08/19 07:22:32;;;;;;;3.75;2.67;;;;;;;18.52;63.38;98306.03;5092148;28;20487;-69
2021/08/19 07:24:57;;;;;;;3.65;2.72;;;;;;;18.55;63.24;98302.56;5090398;28;20037;-69
2021/08/19 07:27:23;;;;;;;4.95;3.00;;;;;;;18.62;62.92;98303.94;5096986;28;20433;-69
2021/08/19 07:29:48;;;;;;;3.55;2.80;;;;;;;18.68;63.07;98297.75;5099932;28;20027;-69
2021/08/19 07:32:18;;;;;;;3.40;2.83;;;;;;;18.79;63.27;98300.03;5090601;28;20066;-69
2021/08/19 07:34:44;;;;;;;3.92;3.05;;;;;;;18.85;62.88;98293.84;5095349;28;20032;-69
2021/08/19 07:37:09;;;;;;;4.57;2.80;;;;;;;18.94;63.00;98299.25;5075245;28;20101;-69
2021/08/19 07:39:34;;;;;;;3.13;2.75;;;;;;;19.00;62.75;98297.03;5073693;28;20020;-69
2021/08/19 07:42:00;;;;;;;3.97;3.28;;;;;;;19.03;62.41;98294.34;5087884;28;20028;-69
2021/08/19 07:44:25;;;;;;;4.38;3.22;;;;;;;19.07;62.39;98294.47;5074865;28;20027;-69
2021/08/19 07:46:51;;;;;;;3.97;3.00;;;;;;;19.11;62.23;98306.47;5092596;28;20028;-69
2021/08/19 07:49:20;;;;;;;5.28;3.13;;;;;;;19.17;61.87;98299.47;5093716;28;20028;-69
2021/08/19 07:51:45;;;;;;;6.05;3.42;;;;;;;19.17;61.62;98288.34;5074599;28;20027;-69
2021/08/19 07:54:11;;;;;;;3.63;2.67;;;;;;;19.26;61.61;98295.72;5093537;28;20036;-69
2021/08/19 07:56:36;;;;;;;3.22;2.58;;;;;;;19.30;61.82;98297.44;5092645;28;20119;-69
2021/08/19 07:59:02;;;;;;;4.65;2.90;;;;;;;19.34;61.55;98295.53;5094113;28;20024;-70
2021/08/19 08:01:27;;;;;;;4.40;3.03;;;;;;;19.39;61.66;98290.84;5094045;28;20053;-69
2021/08/19 08:03:52;;;;;;;3.25;2.70;;;;;;;19.45;61.31;98300.53;5093888;28;20486;-68
2021/08/19 08:06:18;;;;;;;5.50;2.35;;;;;;;19.54;61.88;98289.25;5089168;28;20024;-69
2021/08/19 08:08:43;;;;;;;5.50;2.75;;;;;;;19.59;61.58;98286.16;5095495;28;21384;-69
2021/08/19 08:11:09;;;;;;;3.25;2.55;;;;;;;19.66;61.15;98288.34;5098320;28;20020;-69
2021/08/19 08:13:34;;;;;;;3.97;2.40;;;;;;;19.73;61.48;98285.72;5092616;28;20164;-69
2021/08/19 08:16:00;;;;;;;4.65;2.83;;;;;;;19.77;61.17;98292.16;5093778;28;20161;-69
2021/08/19 08:18:25;;;;;;;3.00;2.70;;;;;;;19.79;61.00;98293.41;5093776;28;20016;-69
2021/08/19 08:20:51;;;;;;;4.05;2.60;;;;;;;19.91;61.38;98297.28;5093346;28;20028;-69
2021/08/19 08:23:19;;;;;;;8.40;3.10;;;;;;;19.96;60.85;98297.00;5094044;28;20020;-68
2021/08/19 08:25:46;;;;;;;3.55;2.55;;;;;;;19.99;60.78;98299.03;5097763;28;20027;-69
2021/08/19 08:28:14;;;;;;;4.25;2.58;;;;;;;20.02;60.64;98294.75;5082831;28;20028;-67
2021/08/19 08:30:44;;;;;;;4.28;2.47;;;;;;;20.07;60.57;98292.47;5091781;28;20031;-69
2021/08/19 08:33:10;;;;;;;4.40;2.65;;;;;;;20.11;60.59;98287.00;5086658;28;20024;-70
2021/08/19 08:35:38;;;;;;;3.17;2.50;;;;;;;20.21;60.44;98296.75;5095463;28;20077;-69
2021/08/19 08:38:06;;;;;;;4.55;2.70;;;;;;;20.20;60.00;98286.78;5092357;28;20028;-69
2021/08/19 08:40:37;;;;;;;4.10;2.95;;;;;;;20.22;59.87;98290.81;5077848;28;20023;-69
2021/08/19 08:43:04;;;;;;;3.30;2.47;;;;;;;20.28;60.10;98296.09;5092910;28;20020;-69
2021/08/19 08:45:34;;;;;;;3.50;2.50;;;;;;;20.30;60.08;98290.97;5072862;28;20044;-69
2021/08/19 08:48:01;;;;;;;2.88;2.45;;;;;;;20.35;59.93;98296.25;5093118;28;20024;-70
2021/08/19 08:50:28;;;;;;;2.45;2.13;;;;;;;20.40;60.19;98290.38;5092804;28;20024;-69
2021/08/19 08:52:54;;;;;;;4.50;2.97;;;;;;;20.49;59.94;98304.06;5094316;28;20043;-69
2021/08/19 08:55:20;;;;;;;4.63;4.18;;;;;;;20.53;59.90;98294.63;5095106;28;20028;-70
2021/08/19 08:57:46;;;;;;;4.50;2.90;;;;;;;20.58;59.38;98292.72;5092971;28;20034;-69
2021/08/19 09:00:12;;;;;;;4.10;2.78;;;;;;;20.56;59.15;98292.28;5095556;28;20527;-69
2021/08/19 09:02:38;;;;;;;4.13;3.17;;;;;;;20.54;59.25;98289.84;5084660;28;20032;-68
2021/08/19 09:05:24;;;;;;;5.07;3.35;;;;;;;20.61;58.90;98286.41;5089447;28;20369;-68
2021/08/19 09:08:00;;;;;;;5.75;3.03;;;;;;;20.70;58.91;98288.97;5092365;28;20488;-68
2021/08/19 09:10:28;;;;;;;4.90;2.60;;;;;;;20.77;59.21;98292.72;5104347;28;20107;-68
2021/08/19 09:12:54;;;;;;;3.60;2.58;;;;;;;20.85;59.27;98288.09;5091220;28;20048;-68
2021/08/19 09:15:22;;;;;;;2.88;2.30;;;;;;;20.94;58.75;98276.72;5074070;28;20020;-68
2021/08/19 09:17:52;;;;;;;3.20;2.70;;;;;;;21.05;58.98;98282.47;5090539;28;20028;-68
2021/08/19 09:20:39;;;;;;;4.07;2.78;;;;;;;21.14;58.74;98277.47;5086638;28;20067;-71
2021/08/19 09:23:13;;;;;;;2.58;2.13;;;;;;;21.26;57.93;98273.69;5089066;28;20580;-70
2021/08/19 09:25:43;;;;;;;2.80;2.20;;;;;;;21.43;58.33;98275.16;5090295;28;20089;-72
2021/08/19 09:28:19;;;;;;;3.00;2.08;;;;;;;21.61;57.53;98286.59;5091497;28;20082;-72
2021/08/19 09:30:46;;;;;;;3.13;2.25;;;;;;;21.71;57.34;98276.81;5092019;28;20056;-72
2021/08/19 09:33:11;;;;;;;3.72;2.00;;;;;;;21.84;57.18;98278.19;5086322;28;20032;-72
2021/08/19 09:35:37;;;;;;;2.72;2.10;;;;;;;21.95;57.01;98269.97;5092050;28;20024;-73
2021/08/19 09:38:15;;;;;;;2.35;1.77;;;;;;;22.07;56.37;98271.72;5094445;28;20051;-72
2021/08/19 09:40:40;;;;;;;4.10;1.92;;;;;;;22.18;54.97;98276.66;5088391;28;20148;-72
2021/08/19 09:43:06;;;;;;;2.85;1.80;;;;;;;22.26;54.99;98286.75;5089811;28;20032;-72
2021/08/19 09:45:42;;;;;;;1.90;1.63;;;;;;;22.29;54.58;98283.19;5090312;28;20034;-72
2021/08/19 09:48:10;;;;;;;2.38;1.88;;;;;;;22.30;54.55;98282.81;5100016;28;20467;-70
2021/08/19 09:50:36;;;;;;;1.98;1.63;;;;;;;22.29;53.82;98283.97;5099054;28;20475;-70
2021/08/19 09:53:17;;;;;;;2.60;1.77;;;;;;;22.24;53.87;98281.53;5102109;28;20035;-70
2021/08/19 09:55:43;;;;;;;3.17;1.88;;;;;;;22.25;51.99;98291.50;5091235;28;20361;-73
2021/08/19 09:58:08;;;;;;;3.22;1.80;;;;;;;22.12;52.68;98287.38;5098811;28;20093;-72
2021/08/19 10:00:41;;;;;;;2.17;1.92;;;;;;;22.10;52.40;98281.34;5089961;28;20028;-72
2021/08/19 10:03:08;;;;;;;2.78;1.95;;;;;;;22.05;52.58;98293.63;5088099;28;20503;-73
2021/08/19 10:05:34;;;;;;;2.47;1.65;;;;;;;22.04;52.77;98282.84;5073753;28;20028;-72
2021/08/19 10:08:00;;;;;;;2.63;1.60;;;;;;;22.03;52.34;98281.25;5091788;28;20480;-70
2021/08/19 10:10:29;;;;;;;3.58;1.75;;;;;;;22.03;52.56;98293.22;5091103;28;20171;-70
2021/08/19 10:12:57;;;;;;;2.13;1.90;;;;;;;22.03;52.03;98287.63;5091313;28;20040;-69
2021/08/19 10:15:23;;;;;;;2.53;1.80;;;;;;;22.03;52.19;98281.25;5072624;28;20097;-69
2021/08/19 10:17:56;;;;;;;3.10;1.92;;;;;;;22.04;52.68;98278.06;5091483;28;20499;-71
2021/08/19 10:20:30;;;;;;;3.20;2.20;;;;;;;22.08;52.29;98290.09;5083097;28;20036;-70
2021/08/19 10:22:59;;;;;;;3.05;1.70;;;;;;;22.10;51.51;98286.94;5088936;28;20479;-70
2021/08/19 10:25:26;;;;;;;2.33;2.00;;;;;;;22.10;51.56;98287.72;5085770;28;20832;-70
2021/08/19 10:28:13;;;;;;;2.97;1.90;;;;;;;22.10;51.28;98293.31;5063614;28;20023;-69
2021/08/19 10:30:58;;;;;;;3.35;1.60;;;;;;;22.09;50.45;98293.72;5089364;28;20024;-71
2021/08/19 10:33:35;;;;;;;2.83;1.98;;;;;;;22.07;50.80;98294.06;5082192;28;20051;-69
2021/08/19 10:36:09;;;;;;;4.30;2.20;;;;;;;22.05;50.62;98296.44;5089767;28;20020;-70
2021/08/19 10:38:35;;;;;;;4.28;2.03;;;;;;;22.02;50.10;98294.38;5088058;28;20066;-72
2021/08/19 10:41:00;;;;;;;4.15;1.75;;;;;;;22.00;50.62;98294.00;5090270;28;20028;-70
2021/08/19 10:43:32;;;;;;;5.97;2.60;;;;;;;22.00;50.82;98300.38;5088905;28;20438;-70
2021/08/19 10:46:09;;;;;;;3.28;1.95;;;;;;;22.05;51.32;98295.63;5088724;28;20020;-70
2021/08/19 10:48:49;;;;;;;4.40;1.90;;;;;;;22.15;51.36;98297.78;5089825;28;20031;-71
2021/08/19 10:51:16;;;;;;;2.13;1.50;;;;;;;22.20;51.39;98303.03;5089142;28;20030;-70
2021/08/19 10:53:42;;;;;;;3.72;2.13;;;;;;;22.26;50.29;98300.72;5087047;28;20111;-69
2021/08/19 10:56:07;;;;;;;2.17;1.80;;;;;;;22.25;50.47;98296.31;5089367;28;20428;-70
2021/08/19 10:58:38;;;;;;;2.30;1.73;;;;;;;22.30;51.21;98302.34;5094448;28;20066;-72
2021/08/19 11:01:18;;;;;;;4.75;2.10;;;;;;;22.28;50.31;98293.53;5088486;28;20036;-70
2021/08/19 11:03:51;;;;;;;3.42;2.08;;;;;;;22.27;50.45;98296.75;5073213;28;20059;-70
2021/08/19 11:06:19;;;;;;;2.88;1.85;;;;;;;22.28;50.80;98306.72;5087339;28;20476;-71
2021/08/19 11:08:59;;;;;;;2.90;2.03;;;;;;;22.26;50.56;98301.50;5091545;28;20051;-70
2021/08/19 11:11:35;;;;;;;2.90;1.88;;;;;;;22.19;50.28;98301.44;5088999;28;20036;-70
2021/08/19 11:14:08;;;;;;;2.58;2.00;;;;;;;22.12;50.47;98306.91;5089103;28;20496;-70
2021/08/19 11:16:35;;;;;;;4.07;1.90;;;;;;;22.05;50.03;98301.22;5087930;28;20016;-71
2021/08/19 11:19:18;;;;;;;3.55;1.88;;;;;;;21.99;50.80;98301.53;5088579;28;20020;-69
2021/08/19 11:21:49;;;;;;;4.13;2.30;;;;;;;21.99;50.66;98304.34;5087461;28;20113;-71
2021/08/19 11:24:15;;;;;;;3.42;2.40;;;;;;;21.96;50.97;98301.50;5087788;28;20484;-70
2021/08/19 11:26:54;;;;;;;6.13;5.55;;;;;;;21.95;51.21;98306.28;5085449;28;20048;-70
2021/08/19 11:29:46;;;;;;;2.85;2.00;;;;;;;21.95;51.01;98306.28;5088500;28;20086;-69
2021/08/19 11:32:14;;;;;;;5.05;3.60;;;;;;;21.95;50.95;98311.84;5088407;28;20503;-70
2021/08/19 11:34:46;;;;;;;3.55;2.60;;;;;;;21.98;50.50;98307.53;5089201;28;20522;-68
2021/08/19 11:37:24;;;;;;;4.88;2.42;;;;;;;21.99;50.83;98307.13;5088341;28;20590;-70